Sultana, California
Current Conditions -  °F | °C
As of 4:15 PM on Monday 22 Dec 2014 (Local Time) from KVIS Reporting Station
Overcast Overcast  
Wind Chill: 63°   Ceiling: 2300
Heat Index: 63°   Visibility: 10mi
Dew Point: 52°   Wind: 5mph
Humidity: 68%   Direction: 290°WNW
Pressure: 30.17"   Gusts: NA
Location:  36.55°N, 119.34°W
Report Text: KVIS 230015Z AUTO 29004KT 10SM BKN023 BKN029 OVC037 17/11 A3017 RMK AO1
Loading
Personal Weather Stations






























Interactive Weather Map New forecast layout! Learn more

10-Day Weather Forecast

Advertisements
Track Severe Weather on mobile